NCAR-RAP Real-Time Weather Data

Output produced by METARs form (08 May 2021  00:45 UTC)
found at http://weather.rap.ucar.edu/surface/
 
KOAK 072353Z 25012KT 10SM CLR 18/08 A3002 RMK AO2 SLP166 T01830083 10200 20156 58014
KOAK 072253Z 26011KT 10SM CLR 19/08 A3003 RMK AO2 SLP170 T01890083
KOAK 072153Z 26014KT 10SM CLR 19/08 A3005 RMK AO2 SLP176 T01940083
KOAK 072053Z 26012KT 10SM CLR 19/08 A3006 RMK AO2 SLP180 T01890078 58005
KOAK 071953Z 26009KT 10SM CLR 18/07 A3008 RMK AO2 SLP185 T01780067
KOAK 071853Z 25008KT 10SM CLR 17/07 A3008 RMK AO2 SLP187 T01670072
KOAK 071753Z 22007KT 10SM FEW019 16/07 A3008 RMK AO2 SLP185 T01560067 10161 20100 51005
KOAK 071653Z 24007KT 10SM FEW019 15/08 A3008 RMK AO2 SLP184 T01500078
KOAK 071553Z 23006KT 10SM SCT019 13/08 A3007 RMK AO2 SLP182 T01330083
KOAK 071453Z 09005KT 10SM FEW008 13/09 A3006 RMK AO2 SLP180 T01330089 53010
KOAK 071353Z 09003KT 10SM FEW012 10/07 A3006 RMK AO2 SLP177 T01000072
KOAK 071253Z 28005KT 10SM FEW012 11/08 A3004 RMK AO2 SLP172 T01060078
KOAK 071153Z 27011KT 10SM FEW012 FEW020 12/08 A3003 RMK AO2 SLP169 T01170083 10122 20111 56007